sensor_id;sensor_type;location;lat;lon;timestamp;temperature;humidity
42755;DHT22;28407;51.830;5.684;2023-04-24T00:01:20;11.90;84.30
42755;DHT22;28407;51.830;5.684;2023-04-24T00:03:20;11.90;84.40
42755;DHT22;28407;51.830;5.684;2023-04-24T00:05:21;11.90;84.50
42755;DHT22;28407;51.830;5.684;2023-04-24T00:07:22;11.90;84.40
42755;DHT22;28407;51.830;5.684;2023-04-24T00:09:23;12.00;84.50
42755;DHT22;28407;51.830;5.684;2023-04-24T00:11:24;12.00;84.50
42755;DHT22;28407;51.830;5.684;2023-04-24T00:13:25;12.00;84.40
42755;DHT22;28407;51.830;5.684;2023-04-24T00:15:25;12.00;84.40
42755;DHT22;28407;51.830;5.684;2023-04-24T00:17:26;12.00;84.40
42755;DHT22;28407;51.830;5.684;2023-04-24T00:19:27;12.00;84.50
42755;DHT22;28407;51.830;5.684;2023-04-24T00:21:28;12.00;84.50
42755;DHT22;28407;51.830;5.684;2023-04-24T00:23:30;12.00;84.40
42755;DHT22;28407;51.830;5.684;2023-04-24T00:25:31;12.00;84.30
42755;DHT22;28407;51.830;5.684;2023-04-24T00:27:31;12.00;84.40
42755;DHT22;28407;51.830;5.684;2023-04-24T00:29:32;12.00;84.40
42755;DHT22;28407;51.830;5.684;2023-04-24T00:31:33;12.00;84.50
42755;DHT22;28407;51.830;5.684;2023-04-24T00:33:35;12.00;84.50
42755;DHT22;28407;51.830;5.684;2023-04-24T00:35:36;12.00;84.50
42755;DHT22;28407;51.830;5.684;2023-04-24T00:37:36;12.00;84.40
42755;DHT22;28407;51.830;5.684;2023-04-24T00:39:37;12.00;84.40
42755;DHT22;28407;51.830;5.684;2023-04-24T00:41:38;12.00;84.30
42755;DHT22;28407;51.830;5.684;2023-04-24T00:43:39;12.00;84.40
42755;DHT22;28407;51.830;5.684;2023-04-24T00:45:40;12.00;84.40
42755;DHT22;28407;51.830;5.684;2023-04-24T00:47:41;12.00;84.40
42755;DHT22;28407;51.830;5.684;2023-04-24T00:49:42;12.00;84.40
42755;DHT22;28407;51.830;5.684;2023-04-24T00:51:43;12.00;84.40
42755;DHT22;28407;51.830;5.684;2023-04-24T00:53:45;12.00;84.40
42755;DHT22;28407;51.830;5.684;2023-04-24T00:55:46;12.00;84.40
42755;DHT22;28407;51.830;5.684;2023-04-24T00:57:48;12.00;84.40
42755;DHT22;28407;51.830;5.684;2023-04-24T00:59:49;12.00;84.50
42755;DHT22;28407;51.830;5.684;2023-04-24T01:01:50;12.00;84.50
42755;DHT22;28407;51.830;5.684;2023-04-24T01:03:52;12.00;84.50
42755;DHT22;28407;51.830;5.684;2023-04-24T01:05:54;12.00;84.50
42755;DHT22;28407;51.830;5.684;2023-04-24T01:07:55;12.00;84.60
42755;DHT22;28407;51.830;5.684;2023-04-24T01:09:56;12.00;84.50
42755;DHT22;28407;51.830;5.684;2023-04-24T01:11:59;11.90;84.50
42755;DHT22;28407;51.830;5.684;2023-04-24T01:14:01;12.00;84.60
42755;DHT22;28407;51.830;5.684;2023-04-24T01:16:02;11.90;84.60
42755;DHT22;28407;51.830;5.684;2023-04-24T01:18:03;12.00;84.70
42755;DHT22;28407;51.830;5.684;2023-04-24T01:20:04;11.90;84.60
42755;DHT22;28407;51.830;5.684;2023-04-24T01:22:11;11.90;84.70
42755;DHT22;28407;51.830;5.684;2023-04-24T01:24:13;11.90;84.80
42755;DHT22;28407;51.830;5.684;2023-04-24T01:26:16;11.90;84.70
42755;DHT22;28407;51.830;5.684;2023-04-24T01:28:17;11.90;84.70
42755;DHT22;28407;51.830;5.684;2023-04-24T01:30:18;11.90;84.60
42755;DHT22;28407;51.830;5.684;2023-04-24T01:32:19;12.00;84.70
42755;DHT22;28407;51.830;5.684;2023-04-24T01:34:20;11.90;84.60
42755;DHT22;28407;51.830;5.684;2023-04-24T01:36:21;12.00;84.60
42755;DHT22;28407;51.830;5.684;2023-04-24T01:38:22;11.90;84.60
42755;DHT22;28407;51.830;5.684;2023-04-24T01:40:23;11.90;84.60
42755;DHT22;28407;51.830;5.684;2023-04-24T01:42:24;11.90;84.60
42755;DHT22;28407;51.830;5.684;2023-04-24T01:44:24;11.90;84.70
42755;DHT22;28407;51.830;5.684;2023-04-24T01:46:25;11.90;84.70
42755;DHT22;28407;51.830;5.684;2023-04-24T01:48:27;11.90;84.70
42755;DHT22;28407;51.830;5.684;2023-04-24T01:50:27;11.90;84.80
42755;DHT22;28407;51.830;5.684;2023-04-24T01:52:28;11.90;84.80
42755;DHT22;28407;51.830;5.684;2023-04-24T01:54:31;11.90;84.80
42755;DHT22;28407;51.830;5.684;2023-04-24T01:56:34;11.90;84.80
42755;DHT22;28407;51.830;5.684;2023-04-24T01:58:37;11.90;84.80
42755;DHT22;28407;51.830;5.684;2023-04-24T02:00:38;11.80;84.90
42755;DHT22;28407;51.830;5.684;2023-04-24T02:02:41;11.80;84.90
42755;DHT22;28407;51.830;5.684;2023-04-24T02:04:42;11.80;85.00
42755;DHT22;28407;51.830;5.684;2023-04-24T02:06:43;11.80;85.00
42755;DHT22;28407;51.830;5.684;2023-04-24T02:08:43;11.80;85.00
42755;DHT22;28407;51.830;5.684;2023-04-24T02:10:44;11.80;85.00
42755;DHT22;28407;51.830;5.684;2023-04-24T02:12:45;11.80;85.00
42755;DHT22;28407;51.830;5.684;2023-04-24T02:14:46;11.90;85.00
42755;DHT22;28407;51.830;5.684;2023-04-24T02:16:46;11.80;84.90
42755;DHT22;28407;51.830;5.684;2023-04-24T02:18:47;11.90;84.90
42755;DHT22;28407;51.830;5.684;2023-04-24T02:20:47;11.80;84.80
42755;DHT22;28407;51.830;5.684;2023-04-24T02:22:48;11.90;84.90
42755;DHT22;28407;51.830;5.684;2023-04-24T02:24:49;11.80;84.90
42755;DHT22;28407;51.830;5.684;2023-04-24T02:26:50;11.80;85.00
42755;DHT22;28407;51.830;5.684;2023-04-24T02:28:50;11.80;85.00
42755;DHT22;28407;51.830;5.684;2023-04-24T02:30:51;11.80;85.00
42755;DHT22;28407;51.830;5.684;2023-04-24T02:32:51;11.80;84.90
42755;DHT22;28407;51.830;5.684;2023-04-24T02:34:52;11.80;85.00
42755;DHT22;28407;51.830;5.684;2023-04-24T02:36:53;11.80;85.00
42755;DHT22;28407;51.830;5.684;2023-04-24T02:38:54;11.80;85.00
42755;DHT22;28407;51.830;5.684;2023-04-24T02:40:55;11.80;85.00
42755;DHT22;28407;51.830;5.684;2023-04-24T02:42:56;11.80;85.00
42755;DHT22;28407;51.830;5.684;2023-04-24T02:44:58;11.80;85.10
42755;DHT22;28407;51.830;5.684;2023-04-24T02:46:59;11.90;85.20
42755;DHT22;28407;51.830;5.684;2023-04-24T02:48:59;11.80;85.10
42755;DHT22;28407;51.830;5.684;2023-04-24T02:51:00;11.80;85.10
42755;DHT22;28407;51.830;5.684;2023-04-24T02:53:01;11.80;85.20
42755;DHT22;28407;51.830;5.684;2023-04-24T02:55:01;11.80;85.30
42755;DHT22;28407;51.830;5.684;2023-04-24T02:57:02;11.80;85.30
42755;DHT22;28407;51.830;5.684;2023-04-24T02:59:03;11.80;85.30
42755;DHT22;28407;51.830;5.684;2023-04-24T03:01:04;11.80;85.30
42755;DHT22;28407;51.830;5.684;2023-04-24T03:03:05;11.70;85.30
42755;DHT22;28407;51.830;5.684;2023-04-24T03:05:07;11.70;85.40
42755;DHT22;28407;51.830;5.684;2023-04-24T03:07:08;11.70;85.40
42755;DHT22;28407;51.830;5.684;2023-04-24T03:09:08;11.70;85.40
42755;DHT22;28407;51.830;5.684;2023-04-24T03:11:09;11.70;85.40
42755;DHT22;28407;51.830;5.684;2023-04-24T03:13:09;11.70;85.50
42755;DHT22;28407;51.830;5.684;2023-04-24T03:15:10;11.70;85.50
42755;DHT22;28407;51.830;5.684;2023-04-24T03:17:11;11.70;85.50
42755;DHT22;28407;51.830;5.684;2023-04-24T03:19:12;11.60;85.40
42755;DHT22;28407;51.830;5.684;2023-04-24T03:21:23;11.70;85.50
42755;DHT22;28407;51.830;5.684;2023-04-24T03:23:24;11.60;85.40
42755;DHT22;28407;51.830;5.684;2023-04-24T03:25:25;11.60;85.50
42755;DHT22;28407;51.830;5.684;2023-04-24T03:27:26;11.60;85.50
42755;DHT22;28407;51.830;5.684;2023-04-24T03:29:34;11.60;85.50
42755;DHT22;28407;51.830;5.684;2023-04-24T03:31:35;11.60;85.50
42755;DHT22;28407;51.830;5.684;2023-04-24T03:33:36;11.60;85.50
42755;DHT22;28407;51.830;5.684;2023-04-24T03:35:36;11.60;85.50
42755;DHT22;28407;51.830;5.684;2023-04-24T03:37:41;11.50;85.40
42755;DHT22;28407;51.830;5.684;2023-04-24T03:40:02;11.50;85.50
42755;DHT22;28407;51.830;5.684;2023-04-24T03:42:03;11.50;85.50
42755;DHT22;28407;51.830;5.684;2023-04-24T03:44:16;11.50;85.40
42755;DHT22;28407;51.830;5.684;2023-04-24T03:46:16;11.50;85.40
42755;DHT22;28407;51.830;5.684;2023-04-24T03:48:24;11.50;85.50
42755;DHT22;28407;51.830;5.684;2023-04-24T03:50:25;11.50;85.50
42755;DHT22;28407;51.830;5.684;2023-04-24T03:52:27;11.40;85.50
42755;DHT22;28407;51.830;5.684;2023-04-24T03:54:28;11.40;85.50
42755;DHT22;28407;51.830;5.684;2023-04-24T03:56:28;11.40;85.50
42755;DHT22;28407;51.830;5.684;2023-04-24T03:58:29;11.30;85.60
42755;DHT22;28407;51.830;5.684;2023-04-24T04:00:30;11.30;85.50
42755;DHT22;28407;51.830;5.684;2023-04-24T04:02:52;11.40;85.60
42755;DHT22;28407;51.830;5.684;2023-04-24T04:04:53;11.30;85.60
42755;DHT22;28407;51.830;5.684;2023-04-24T04:06:54;11.30;85.60
42755;DHT22;28407;51.830;5.684;2023-04-24T04:08:55;11.30;85.60
42755;DHT22;28407;51.830;5.684;2023-04-24T04:10:55;11.30;85.50
42755;DHT22;28407;51.830;5.684;2023-04-24T04:12:57;11.30;85.50
42755;DHT22;28407;51.830;5.684;2023-04-24T04:14:58;11.30;85.40
42755;DHT22;28407;51.830;5.684;2023-04-24T04:16:58;11.40;85.50
42755;DHT22;28407;51.830;5.684;2023-04-24T04:19:00;11.40;85.40
42755;DHT22;28407;51.830;5.684;2023-04-24T04:21:01;11.40;85.40
42755;DHT22;28407;51.830;5.684;2023-04-24T04:23:02;11.30;85.40
42755;DHT22;28407;51.830;5.684;2023-04-24T04:25:19;11.30;85.40
42755;DHT22;28407;51.830;5.684;2023-04-24T04:27:20;11.30;85.40
42755;DHT22;28407;51.830;5.684;2023-04-24T04:29:33;11.30;85.40
42755;DHT22;28407;51.830;5.684;2023-04-24T04:31:36;11.30;85.50
42755;DHT22;28407;51.830;5.684;2023-04-24T04:33:41;11.20;85.40
42755;DHT22;28407;51.830;5.684;2023-04-24T04:35:43;11.20;85.40
42755;DHT22;28407;51.830;5.684;2023-04-24T04:37:44;11.20;85.50
42755;DHT22;28407;51.830;5.684;2023-04-24T04:39:54;11.20;85.50
42755;DHT22;28407;51.830;5.684;2023-04-24T04:41:57;11.20;85.50
42755;DHT22;28407;51.830;5.684;2023-04-24T04:44:03;11.20;85.50
42755;DHT22;28407;51.830;5.684;2023-04-24T04:46:06;11.20;85.50
42755;DHT22;28407;51.830;5.684;2023-04-24T04:48:40;11.20;85.60
42755;DHT22;28407;51.830;5.684;2023-04-24T04:50:42;11.20;85.60
42755;DHT22;28407;51.830;5.684;2023-04-24T04:52:42;11.20;85.60
42755;DHT22;28407;51.830;5.684;2023-04-24T04:54:53;11.20;85.60
42755;DHT22;28407;51.830;5.684;2023-04-24T04:56:56;11.20;85.50
42755;DHT22;28407;51.830;5.684;2023-04-24T04:58:57;11.20;85.60
42755;DHT22;28407;51.830;5.684;2023-04-24T05:00:59;11.10;85.60
42755;DHT22;28407;51.830;5.684;2023-04-24T05:03:04;11.10;85.70
42755;DHT22;28407;51.830;5.684;2023-04-24T05:05:06;11.10;85.90
42755;DHT22;28407;51.830;5.684;2023-04-24T05:07:07;11.10;85.90
42755;DHT22;28407;51.830;5.684;2023-04-24T05:09:10;11.10;85.80
42755;DHT22;28407;51.830;5.684;2023-04-24T05:11:20;11.10;85.80
42755;DHT22;28407;51.830;5.684;2023-04-24T05:13:21;11.10;85.90
42755;DHT22;28407;51.830;5.684;2023-04-24T05:15:22;11.10;86.00
42755;DHT22;28407;51.830;5.684;2023-04-24T05:17:22;11.10;86.00
42755;DHT22;28407;51.830;5.684;2023-04-24T05:19:24;11.10;86.00
42755;DHT22;28407;51.830;5.684;2023-04-24T05:21:25;11.10;86.00
42755;DHT22;28407;51.830;5.684;2023-04-24T05:23:27;11.20;85.90
42755;DHT22;28407;51.830;5.684;2023-04-24T05:25:29;11.20;85.90
42755;DHT22;28407;51.830;5.684;2023-04-24T05:27:39;11.20;85.80
42755;DHT22;28407;51.830;5.684;2023-04-24T05:29:46;11.30;85.70
42755;DHT22;28407;51.830;5.684;2023-04-24T05:31:47;11.30;85.60
42755;DHT22;28407;51.830;5.684;2023-04-24T05:33:48;11.40;85.60
42755;DHT22;28407;51.830;5.684;2023-04-24T05:35:49;11.40;85.50
42755;DHT22;28407;51.830;5.684;2023-04-24T05:37:50;11.40;85.50
42755;DHT22;28407;51.830;5.684;2023-04-24T05:39:51;11.40;85.40
42755;DHT22;28407;51.830;5.684;2023-04-24T05:41:52;11.50;85.40
42755;DHT22;28407;51.830;5.684;2023-04-24T05:43:53;11.50;85.30
42755;DHT22;28407;51.830;5.684;2023-04-24T05:45:55;11.50;85.30
42755;DHT22;28407;51.830;5.684;2023-04-24T05:47:55;11.50;85.20
42755;DHT22;28407;51.830;5.684;2023-04-24T05:49:56;11.50;85.20
42755;DHT22;28407;51.830;5.684;2023-04-24T05:51:57;11.50;85.30
42755;DHT22;28407;51.830;5.684;2023-04-24T05:53:58;11.50;85.30
42755;DHT22;28407;51.830;5.684;2023-04-24T05:55:59;11.50;85.40
42755;DHT22;28407;51.830;5.684;2023-04-24T05:58:01;11.40;86.00
42755;DHT22;28407;51.830;5.684;2023-04-24T06:00:03;11.40;85.40
42755;DHT22;28407;51.830;5.684;2023-04-24T06:02:13;11.40;85.40
42755;DHT22;28407;51.830;5.684;2023-04-24T06:04:14;11.40;85.40
42755;DHT22;28407;51.830;5.684;2023-04-24T06:06:15;11.40;85.40
42755;DHT22;28407;51.830;5.684;2023-04-24T06:08:16;11.40;85.40
42755;DHT22;28407;51.830;5.684;2023-04-24T06:10:18;11.40;85.40
42755;DHT22;28407;51.830;5.684;2023-04-24T06:12:19;11.40;85.30
42755;DHT22;28407;51.830;5.684;2023-04-24T06:14:34;11.50;85.40
42755;DHT22;28407;51.830;5.684;2023-04-24T06:16:48;11.40;85.30
42755;DHT22;28407;51.830;5.684;2023-04-24T06:19:00;11.50;85.30
42755;DHT22;28407;51.830;5.684;2023-04-24T06:21:01;11.50;85.30
42755;DHT22;28407;51.830;5.684;2023-04-24T06:23:03;11.50;85.20
42755;DHT22;28407;51.830;5.684;2023-04-24T06:25:07;11.50;85.20
42755;DHT22;28407;51.830;5.684;2023-04-24T06:27:08;11.60;85.20
42755;DHT22;28407;51.830;5.684;2023-04-24T06:29:08;11.60;85.20
42755;DHT22;28407;51.830;5.684;2023-04-24T06:31:10;11.60;85.10
42755;DHT22;28407;51.830;5.684;2023-04-24T06:33:11;11.70;85.10
42755;DHT22;28407;51.830;5.684;2023-04-24T06:35:11;11.70;85.10
42755;DHT22;28407;51.830;5.684;2023-04-24T06:37:12;11.70;85.00
42755;DHT22;28407;51.830;5.684;2023-04-24T06:39:13;11.70;85.00
42755;DHT22;28407;51.830;5.684;2023-04-24T06:41:13;11.70;85.00
42755;DHT22;28407;51.830;5.684;2023-04-24T06:43:14;11.70;85.00
42755;DHT22;28407;51.830;5.684;2023-04-24T06:45:15;11.70;85.00
42755;DHT22;28407;51.830;5.684;2023-04-24T06:47:15;11.70;85.10
42755;DHT22;28407;51.830;5.684;2023-04-24T06:49:16;11.80;85.10
42755;DHT22;28407;51.830;5.684;2023-04-24T06:51:17;11.80;85.10
42755;DHT22;28407;51.830;5.684;2023-04-24T06:53:18;11.80;85.00
42755;DHT22;28407;51.830;5.684;2023-04-24T06:55:19;11.90;85.10
42755;DHT22;28407;51.830;5.684;2023-04-24T06:57:19;11.90;85.00
42755;DHT22;28407;51.830;5.684;2023-04-24T06:59:21;11.90;85.00
42755;DHT22;28407;51.830;5.684;2023-04-24T07:01:21;11.90;84.90
42755;DHT22;28407;51.830;5.684;2023-04-24T07:03:22;11.90;84.90
42755;DHT22;28407;51.830;5.684;2023-04-24T07:05:23;11.90;84.90
42755;DHT22;28407;51.830;5.684;2023-04-24T07:07:23;11.90;84.90
42755;DHT22;28407;51.830;5.684;2023-04-24T07:09:25;11.90;84.90
42755;DHT22;28407;51.830;5.684;2023-04-24T07:11:26;11.90;84.90
42755;DHT22;28407;51.830;5.684;2023-04-24T07:13:29;11.90;84.80
42755;DHT22;28407;51.830;5.684;2023-04-24T07:15:30;11.90;84.90
42755;DHT22;28407;51.830;5.684;2023-04-24T07:17:31;11.90;84.90
42755;DHT22;28407;51.830;5.684;2023-04-24T07:19:33;11.90;84.80
42755;DHT22;28407;51.830;5.684;2023-04-24T07:21:34;11.90;84.90
42755;DHT22;28407;51.830;5.684;2023-04-24T07:23:34;11.90;84.90
42755;DHT22;28407;51.830;5.684;2023-04-24T07:25:35;11.90;84.90
42755;DHT22;28407;51.830;5.684;2023-04-24T07:27:36;11.90;84.90
42755;DHT22;28407;51.830;5.684;2023-04-24T07:29:37;11.90;84.90
42755;DHT22;28407;51.830;5.684;2023-04-24T07:31:38;11.90;84.90
42755;DHT22;28407;51.830;5.684;2023-04-24T07:33:39;11.90;84.90
42755;DHT22;28407;51.830;5.684;2023-04-24T07:35:39;11.80;84.80
42755;DHT22;28407;51.830;5.684;2023-04-24T07:37:40;11.80;84.90
42755;DHT22;28407;51.830;5.684;2023-04-24T07:39:45;11.80;84.90
42755;DHT22;28407;51.830;5.684;2023-04-24T07:41:46;11.80;84.90
42755;DHT22;28407;51.830;5.684;2023-04-24T07:43:47;11.80;84.90
42755;DHT22;28407;51.830;5.684;2023-04-24T07:45:47;11.80;84.90
42755;DHT22;28407;51.830;5.684;2023-04-24T07:47:48;11.70;84.90
42755;DHT22;28407;51.830;5.684;2023-04-24T07:49:49;11.70;85.10
42755;DHT22;28407;51.830;5.684;2023-04-24T07:51:49;11.70;84.90
42755;DHT22;28407;51.830;5.684;2023-04-24T07:53:50;11.70;84.90
42755;DHT22;28407;51.830;5.684;2023-04-24T07:55:51;11.70;84.90
42755;DHT22;28407;51.830;5.684;2023-04-24T07:57:51;11.70;84.90
42755;DHT22;28407;51.830;5.684;2023-04-24T07:59:52;11.70;84.90
42755;DHT22;28407;51.830;5.684;2023-04-24T08:01:52;11.70;84.80
42755;DHT22;28407;51.830;5.684;2023-04-24T08:03:54;11.80;84.90
42755;DHT22;28407;51.830;5.684;2023-04-24T08:05:55;11.70;84.80
42755;DHT22;28407;51.830;5.684;2023-04-24T08:07:55;11.70;84.80
42755;DHT22;28407;51.830;5.684;2023-04-24T08:09:56;11.70;84.70
42755;DHT22;28407;51.830;5.684;2023-04-24T08:11:56;11.70;84.70
42755;DHT22;28407;51.830;5.684;2023-04-24T08:13:57;11.70;84.70
42755;DHT22;28407;51.830;5.684;2023-04-24T08:15:58;11.70;84.70
42755;DHT22;28407;51.830;5.684;2023-04-24T08:17:58;11.70;84.60
42755;DHT22;28407;51.830;5.684;2023-04-24T08:19:59;11.80;85.30
42755;DHT22;28407;51.830;5.684;2023-04-24T08:22:01;11.80;84.60
42755;DHT22;28407;51.830;5.684;2023-04-24T08:24:04;11.80;84.60
42755;DHT22;28407;51.830;5.684;2023-04-24T08:26:07;11.80;84.50
42755;DHT22;28407;51.830;5.684;2023-04-24T08:28:09;11.80;84.50
42755;DHT22;28407;51.830;5.684;2023-04-24T08:30:11;11.80;84.50
42755;DHT22;28407;51.830;5.684;2023-04-24T08:32:12;11.80;84.40
42755;DHT22;28407;51.830;5.684;2023-04-24T08:34:12;11.80;84.40
42755;DHT22;28407;51.830;5.684;2023-04-24T08:36:13;11.80;84.40
42755;DHT22;28407;51.830;5.684;2023-04-24T08:38:13;11.80;84.40
42755;DHT22;28407;51.830;5.684;2023-04-24T08:40:15;11.80;84.40
42755;DHT22;28407;51.830;5.684;2023-04-24T08:42:17;11.80;84.40
42755;DHT22;28407;51.830;5.684;2023-04-24T08:44:19;11.80;84.30
42755;DHT22;28407;51.830;5.684;2023-04-24T08:46:20;11.80;84.40
42755;DHT22;28407;51.830;5.684;2023-04-24T08:48:22;11.80;84.30
42755;DHT22;28407;51.830;5.684;2023-04-24T08:50:24;11.80;84.40
42755;DHT22;28407;51.830;5.684;2023-04-24T08:52:25;11.80;84.50
42755;DHT22;28407;51.830;5.684;2023-04-24T08:54:26;11.80;84.50
42755;DHT22;28407;51.830;5.684;2023-04-24T08:56:27;11.70;84.40
42755;DHT22;28407;51.830;5.684;2023-04-24T08:58:32;11.70;84.40
42755;DHT22;28407;51.830;5.684;2023-04-24T09:00:33;11.70;84.40
42755;DHT22;28407;51.830;5.684;2023-04-24T09:02:34;11.80;84.40
42755;DHT22;28407;51.830;5.684;2023-04-24T09:04:35;11.80;85.00
42755;DHT22;28407;51.830;5.684;2023-04-24T09:06:36;11.80;84.30
42755;DHT22;28407;51.830;5.684;2023-04-24T09:08:38;11.80;84.30
42755;DHT22;28407;51.830;5.684;2023-04-24T09:10:40;11.70;84.30
42755;DHT22;28407;51.830;5.684;2023-04-24T09:12:42;11.80;84.30
42755;DHT22;28407;51.830;5.684;2023-04-24T09:14:42;11.80;84.30
42755;DHT22;28407;51.830;5.684;2023-04-24T09:16:46;11.80;84.20
42755;DHT22;28407;51.830;5.684;2023-04-24T09:18:46;11.80;84.10
42755;DHT22;28407;51.830;5.684;2023-04-24T09:21:06;11.80;84.00
42755;DHT22;28407;51.830;5.684;2023-04-24T09:23:07;11.80;84.00
42755;DHT22;28407;51.830;5.684;2023-04-24T09:25:10;11.80;83.90
42755;DHT22;28407;51.830;5.684;2023-04-24T09:27:13;11.90;83.80
42755;DHT22;28407;51.830;5.684;2023-04-24T09:29:15;11.80;83.60
42755;DHT22;28407;51.830;5.684;2023-04-24T09:31:18;11.90;83.70
42755;DHT22;28407;51.830;5.684;2023-04-24T09:33:21;11.80;83.60
42755;DHT22;28407;51.830;5.684;2023-04-24T09:35:22;11.90;83.60
42755;DHT22;28407;51.830;5.684;2023-04-24T09:37:29;11.90;83.50
42755;DHT22;28407;51.830;5.684;2023-04-24T09:39:30;11.90;83.40
42755;DHT22;28407;51.830;5.684;2023-04-24T09:41:32;11.90;83.30
42755;DHT22;28407;51.830;5.684;2023-04-24T09:43:33;11.90;83.30
42755;DHT22;28407;51.830;5.684;2023-04-24T09:45:38;11.90;83.20
42755;DHT22;28407;51.830;5.684;2023-04-24T09:47:40;11.90;83.10
42755;DHT22;28407;51.830;5.684;2023-04-24T09:49:41;12.00;83.10
42755;DHT22;28407;51.830;5.684;2023-04-24T09:51:43;12.00;83.00
42755;DHT22;28407;51.830;5.684;2023-04-24T09:53:47;12.00;82.90
42755;DHT22;28407;51.830;5.684;2023-04-24T09:55:52;12.00;82.70
42755;DHT22;28407;51.830;5.684;2023-04-24T09:57:55;12.10;82.70
42755;DHT22;28407;51.830;5.684;2023-04-24T09:59:57;12.10;82.50
42755;DHT22;28407;51.830;5.684;2023-04-24T10:01:59;12.10;82.40
42755;DHT22;28407;51.830;5.684;2023-04-24T10:04:00;12.10;82.20
42755;DHT22;28407;51.830;5.684;2023-04-24T10:06:02;12.10;82.10
42755;DHT22;28407;51.830;5.684;2023-04-24T10:08:10;12.20;82.00
42755;DHT22;28407;51.830;5.684;2023-04-24T10:10:10;12.20;81.80
42755;DHT22;28407;51.830;5.684;2023-04-24T10:12:12;12.30;81.80
42755;DHT22;28407;51.830;5.684;2023-04-24T10:14:15;12.30;81.60
42755;DHT22;28407;51.830;5.684;2023-04-24T10:16:16;12.30;81.40
42755;DHT22;28407;51.830;5.684;2023-04-24T10:18:17;12.40;81.20
42755;DHT22;28407;51.830;5.684;2023-04-24T10:20:24;12.50;81.00
42755;DHT22;28407;51.830;5.684;2023-04-24T10:22:25;12.50;80.60
42755;DHT22;28407;51.830;5.684;2023-04-24T10:24:28;12.50;80.50
42755;DHT22;28407;51.830;5.684;2023-04-24T10:26:29;12.50;80.40
42755;DHT22;28407;51.830;5.684;2023-04-24T10:28:30;12.50;80.40
42755;DHT22;28407;51.830;5.684;2023-04-24T10:30:33;12.50;80.30
42755;DHT22;28407;51.830;5.684;2023-04-24T10:32:37;12.50;80.20
42755;DHT22;28407;51.830;5.684;2023-04-24T10:34:38;12.50;80.10
42755;DHT22;28407;51.830;5.684;2023-04-24T10:36:41;12.50;80.00
42755;DHT22;28407;51.830;5.684;2023-04-24T10:38:45;12.60;79.90
42755;DHT22;28407;51.830;5.684;2023-04-24T10:40:47;12.60;79.70
42755;DHT22;28407;51.830;5.684;2023-04-24T10:42:48;12.60;79.50
42755;DHT22;28407;51.830;5.684;2023-04-24T10:44:51;12.60;79.40
42755;DHT22;28407;51.830;5.684;2023-04-24T10:46:54;12.60;79.30
42755;DHT22;28407;51.830;5.684;2023-04-24T10:48:55;12.60;79.20
42755;DHT22;28407;51.830;5.684;2023-04-24T10:50:56;12.50;79.00
42755;DHT22;28407;51.830;5.684;2023-04-24T10:53:13;12.50;79.00
42755;DHT22;28407;51.830;5.684;2023-04-24T10:55:15;12.50;79.00
42755;DHT22;28407;51.830;5.684;2023-04-24T10:59:27;12.40;79.10
42755;DHT22;28407;51.830;5.684;2023-04-24T11:01:30;12.40;79.00
42755;DHT22;28407;51.830;5.684;2023-04-24T11:03:33;12.40;79.00
42755;DHT22;28407;51.830;5.684;2023-04-24T11:05:54;12.50;78.90
42755;DHT22;28407;51.830;5.684;2023-04-24T11:08:15;12.50;78.70
42755;DHT22;28407;51.830;5.684;2023-04-24T11:10:26;12.60;78.50
42755;DHT22;28407;51.830;5.684;2023-04-24T11:12:27;12.60;78.40
42755;DHT22;28407;51.830;5.684;2023-04-24T11:14:27;12.60;78.10
42755;DHT22;28407;51.830;5.684;2023-04-24T11:16:53;12.60;78.00
42755;DHT22;28407;51.830;5.684;2023-04-24T11:19:02;12.70;77.80
42755;DHT22;28407;51.830;5.684;2023-04-24T11:21:11;12.70;77.80
42755;DHT22;28407;51.830;5.684;2023-04-24T11:23:12;12.70;77.50
42755;DHT22;28407;51.830;5.684;2023-04-24T11:25:15;12.70;77.50
42755;DHT22;28407;51.830;5.684;2023-04-24T11:27:19;12.70;77.50
42755;DHT22;28407;51.830;5.684;2023-04-24T11:29:25;12.60;77.40
42755;DHT22;28407;51.830;5.684;2023-04-24T11:31:40;12.70;77.40
42755;DHT22;28407;51.830;5.684;2023-04-24T11:33:41;12.70;77.40
42755;DHT22;28407;51.830;5.684;2023-04-24T11:35:42;12.70;77.40
42755;DHT22;28407;51.830;5.684;2023-04-24T11:37:44;12.70;77.30
42755;DHT22;28407;51.830;5.684;2023-04-24T11:39:53;12.70;77.30
42755;DHT22;28407;51.830;5.684;2023-04-24T11:42:02;12.70;77.30
42755;DHT22;28407;51.830;5.684;2023-04-24T11:44:08;12.60;77.30
42755;DHT22;28407;51.830;5.684;2023-04-24T11:46:09;12.70;77.40
42755;DHT22;28407;51.830;5.684;2023-04-24T11:48:10;12.60;77.40
42755;DHT22;28407;51.830;5.684;2023-04-24T11:50:12;12.60;77.40
42755;DHT22;28407;51.830;5.684;2023-04-24T11:52:15;12.70;77.50
42755;DHT22;28407;51.830;5.684;2023-04-24T11:54:16;12.70;77.40
42755;DHT22;28407;51.830;5.684;2023-04-24T11:56:23;12.80;77.40
42755;DHT22;28407;51.830;5.684;2023-04-24T11:58:24;12.80;77.30
42755;DHT22;28407;51.830;5.684;2023-04-24T12:00:28;12.80;77.10
42755;DHT22;28407;51.830;5.684;2023-04-24T12:02:29;12.90;77.00
42755;DHT22;28407;51.830;5.684;2023-04-24T12:04:41;12.80;76.60
42755;DHT22;28407;51.830;5.684;2023-04-24T12:07:01;12.90;76.60
42755;DHT22;28407;51.830;5.684;2023-04-24T12:09:02;13.00;76.30
42755;DHT22;28407;51.830;5.684;2023-04-24T12:11:05;13.10;76.10
42755;DHT22;28407;51.830;5.684;2023-04-24T12:13:09;13.20;75.60
42755;DHT22;28407;51.830;5.684;2023-04-24T12:15:11;13.30;75.30
42755;DHT22;28407;51.830;5.684;2023-04-24T12:17:12;13.30;75.30
42755;DHT22;28407;51.830;5.684;2023-04-24T12:19:21;13.30;75.20
42755;DHT22;28407;51.830;5.684;2023-04-24T12:21:22;13.20;75.10
42755;DHT22;28407;51.830;5.684;2023-04-24T12:23:36;13.20;75.20
42755;DHT22;28407;51.830;5.684;2023-04-24T12:25:38;13.20;75.10
42755;DHT22;28407;51.830;5.684;2023-04-24T12:27:39;13.20;75.10
42755;DHT22;28407;51.830;5.684;2023-04-24T12:29:59;13.10;75.20
42755;DHT22;28407;51.830;5.684;2023-04-24T12:31:59;13.10;75.30
42755;DHT22;28407;51.830;5.684;2023-04-24T12:34:01;13.10;75.40
42755;DHT22;28407;51.830;5.684;2023-04-24T12:36:02;13.00;75.50
42755;DHT22;28407;51.830;5.684;2023-04-24T12:38:09;13.00;75.50
42755;DHT22;28407;51.830;5.684;2023-04-24T12:40:11;13.00;75.70
42755;DHT22;28407;51.830;5.684;2023-04-24T12:42:12;13.00;75.90
42755;DHT22;28407;51.830;5.684;2023-04-24T12:44:13;13.10;76.00
42755;DHT22;28407;51.830;5.684;2023-04-24T12:46:15;13.20;76.10
42755;DHT22;28407;51.830;5.684;2023-04-24T12:48:16;13.20;76.00
42755;DHT22;28407;51.830;5.684;2023-04-24T12:50:17;13.30;76.00
42755;DHT22;28407;51.830;5.684;2023-04-24T12:52:24;13.40;76.00
42755;DHT22;28407;51.830;5.684;2023-04-24T12:54:24;13.60;75.90
42755;DHT22;28407;51.830;5.684;2023-04-24T12:56:25;13.70;75.50